Aviation Digital Data Service (ADDS)

Output produced by METARs form (0343 UTC 23 November 2017)
found at http://www.aviationweather.gov/adds/metars/
 
FKKD 230300Z 13002KT 9999 TS BKN013 FEW016CB 25/24 Q1009 NOSIG
TAF FKKD 222300Z 2300/2406 VRB04KT 9999 TS BKN013 FEW016CB 
     TEMPO 2301/2306 4000 TSRA 
     BECMG 2306/2308 NSW BKN016 FEW020CB
       
FKKR 230300Z 00000KT CAVOK 21/13 Q1010
FKYS 230300Z 26004KT 210V310 8000 SCT003 BKN006 22/21 Q1014 NOSIG
TAF FKYS 222300Z 2300/2324 VRB04KT 8000 FEW003 BKN006 
     PROB40 2301/2304 2500 BR 
     PROB30 
     TEMPO 2305/2309 4000 TSRA BKN004 FEW016CB 
     BECMG 2309/2310 BKN016 
     TEMPO 2316/2322 TS BKN014 FEW023CB